KDEN/DEN METAR and TAF weather

Enter ICAO airport designator
Station Type Date Time Source
KDEN METAR 2022/06/27 06:53 UTC NOAA

KDEN 270653Z 25007KT 10SM BKN180 16/09 A3037 RMK AO2 SLP226 T01560094 402170133 $


Station Type Date Time Source
KDEN Decoded METAR 2022/06/27 06:53 UTC NOAA

DENVER INTERNATIONAL AIRPORT, CO, United States (KDEN) 39-52N 104-40W 1640M
Jun 27, 2022 - 02:53 AM EDT / 2022.06.27 0653 UTC
Wind: from the WSW (250 degrees) at 8 MPH (7 KT):0
Visibility: 10 mile(s):0
Sky conditions: mostly cloudy
Temperature: 60.1 F (15.6 C)
Dew Point: 48.9 F (9.4 C)
Relative Humidity: 66%
Pressure (altimeter): 30.37 in. Hg (1028 hPa)
ob: KDEN 270653Z 25007KT 10SM BKN180 16/09 A3037 RMK AO2 SLP226 T01560094 402170133
cycle: 7

Station Type Date Time Source
KDEN TAF 2022/06/27 06:39 UTC NOAA

TAF KDEN 270536Z 2706/2812 18011KT P6SM SCT150 BKN220
FM271200 24007KT P6SM FEW150 BKN220
FM271800 02007KT P6SM SCT080 SCT220
FM272300 09013KT P6SM BKN100
FM280200 16010KT P6SM SCT120 BKN150
FM280500 22006KT P6SM SCT150

Example: see airport list